Terminal Aerodrome Forecast
Issued by NWS Sioux Falls, SD

Home | Current Version | Previous Version | Graphics & Text | Print | Product List | Glossary On
Versions: 1 2 3 4 5 6 7 8 9 10 11 12
000
FTUS43 KFSD 220520
TAFHON
TAF
KHON 220520Z 2206/2306 11009KT P6SM OVC100
     FM221200 14011KT 5SM -SN OVC035
     FM221500 15015G23KT P6SM OVC040
     FM221800 15019G27KT P6SM OVC060
     FM222300 15017G25KT P6SM SCT140=

USA.gov is the U.S. government's official web portal to all federal, state and local government web resources and services.